sensor_id;sensor_type;location;lat;lon;timestamp;temperature;humidity
11446;DHT22;5779;64.178;15.432;2023-02-22T00:02:38;-5.00;99.90
11446;DHT22;5779;64.178;15.432;2023-02-22T00:05:29;-4.90;99.90
11446;DHT22;5779;64.178;15.432;2023-02-22T00:08:20;-4.90;99.90
11446;DHT22;5779;64.178;15.432;2023-02-22T00:11:08;-4.90;99.90
11446;DHT22;5779;64.178;15.432;2023-02-22T00:13:55;-4.90;99.90
11446;DHT22;5779;64.178;15.432;2023-02-22T00:16:42;-4.90;99.90
11446;DHT22;5779;64.178;15.432;2023-02-22T00:19:29;-4.90;99.90
11446;DHT22;5779;64.178;15.432;2023-02-22T00:22:16;-4.90;99.90
11446;DHT22;5779;64.178;15.432;2023-02-22T00:25:05;-4.90;99.90
11446;DHT22;5779;64.178;15.432;2023-02-22T00:27:52;-4.90;99.90
11446;DHT22;5779;64.178;15.432;2023-02-22T00:30:40;-4.90;99.90
11446;DHT22;5779;64.178;15.432;2023-02-22T00:33:27;-4.90;99.90
11446;DHT22;5779;64.178;15.432;2023-02-22T00:36:14;-4.80;99.90
11446;DHT22;5779;64.178;15.432;2023-02-22T00:39:01;-4.80;99.90
11446;DHT22;5779;64.178;15.432;2023-02-22T00:41:49;-4.80;99.90
11446;DHT22;5779;64.178;15.432;2023-02-22T00:44:36;-4.90;99.90
11446;DHT22;5779;64.178;15.432;2023-02-22T00:47:23;-5.20;99.90
11446;DHT22;5779;64.178;15.432;2023-02-22T00:50:12;-5.20;99.90
11446;DHT22;5779;64.178;15.432;2023-02-22T00:53:01;-5.30;99.90
11446;DHT22;5779;64.178;15.432;2023-02-22T00:55:48;-5.30;99.90
11446;DHT22;5779;64.178;15.432;2023-02-22T00:58:37;-5.10;99.90
11446;DHT22;5779;64.178;15.432;2023-02-22T01:01:24;-5.10;99.90
11446;DHT22;5779;64.178;15.432;2023-02-22T01:04:11;-5.00;99.90
11446;DHT22;5779;64.178;15.432;2023-02-22T01:06:57;-4.90;99.90
11446;DHT22;5779;64.178;15.432;2023-02-22T01:09:45;-4.90;99.90
11446;DHT22;5779;64.178;15.432;2023-02-22T01:12:32;-5.00;99.90
11446;DHT22;5779;64.178;15.432;2023-02-22T01:15:22;-5.00;99.90
11446;DHT22;5779;64.178;15.432;2023-02-22T01:18:10;-5.10;99.90
11446;DHT22;5779;64.178;15.432;2023-02-22T01:20:57;-5.10;99.90
11446;DHT22;5779;64.178;15.432;2023-02-22T01:23:46;-5.00;99.90
11446;DHT22;5779;64.178;15.432;2023-02-22T01:26:33;-5.10;99.90
11446;DHT22;5779;64.178;15.432;2023-02-22T01:29:19;-5.10;99.90
11446;DHT22;5779;64.178;15.432;2023-02-22T01:32:08;-5.10;99.90
11446;DHT22;5779;64.178;15.432;2023-02-22T01:34:56;-5.10;99.90
11446;DHT22;5779;64.178;15.432;2023-02-22T01:37:43;-5.10;99.90
11446;DHT22;5779;64.178;15.432;2023-02-22T01:40:33;-5.10;99.90
11446;DHT22;5779;64.178;15.432;2023-02-22T01:43:22;-5.10;99.90
11446;DHT22;5779;64.178;15.432;2023-02-22T01:46:19;-5.00;99.90
11446;DHT22;5779;64.178;15.432;2023-02-22T01:49:07;-4.90;99.90
11446;DHT22;5779;64.178;15.432;2023-02-22T01:51:56;-4.90;99.90
11446;DHT22;5779;64.178;15.432;2023-02-22T01:54:47;-4.90;99.90
11446;DHT22;5779;64.178;15.432;2023-02-22T01:57:36;-4.90;99.90
11446;DHT22;5779;64.178;15.432;2023-02-22T02:00:24;-4.90;99.90
11446;DHT22;5779;64.178;15.432;2023-02-22T02:03:14;-4.90;99.90
11446;DHT22;5779;64.178;15.432;2023-02-22T02:06:08;-5.00;99.90
11446;DHT22;5779;64.178;15.432;2023-02-22T02:09:01;-5.60;99.90
11446;DHT22;5779;64.178;15.432;2023-02-22T02:11:49;-5.50;99.90
11446;DHT22;5779;64.178;15.432;2023-02-22T02:14:36;-5.30;99.90
11446;DHT22;5779;64.178;15.432;2023-02-22T02:17:24;-5.40;99.90
11446;DHT22;5779;64.178;15.432;2023-02-22T02:20:16;-5.70;99.90
11446;DHT22;5779;64.178;15.432;2023-02-22T02:23:17;-5.70;99.90
11446;DHT22;5779;64.178;15.432;2023-02-22T02:26:40;-5.50;99.90
11446;DHT22;5779;64.178;15.432;2023-02-22T02:33:03;-5.10;99.90
11446;DHT22;5779;64.178;15.432;2023-02-22T02:35:58;-5.00;99.90
11446;DHT22;5779;64.178;15.432;2023-02-22T02:38:53;-5.10;99.90
11446;DHT22;5779;64.178;15.432;2023-02-22T02:41:46;-5.10;99.90
11446;DHT22;5779;64.178;15.432;2023-02-22T02:44:38;-5.00;99.90
11446;DHT22;5779;64.178;15.432;2023-02-22T02:47:29;-5.00;99.90
11446;DHT22;5779;64.178;15.432;2023-02-22T02:50:22;-4.90;99.90
11446;DHT22;5779;64.178;15.432;2023-02-22T02:53:10;-4.90;99.90
11446;DHT22;5779;64.178;15.432;2023-02-22T02:55:58;-5.10;99.90
11446;DHT22;5779;64.178;15.432;2023-02-22T02:58:47;-5.30;99.90
11446;DHT22;5779;64.178;15.432;2023-02-22T03:01:47;-5.40;99.90
11446;DHT22;5779;64.178;15.432;2023-02-22T03:04:51;-5.50;99.90
11446;DHT22;5779;64.178;15.432;2023-02-22T03:07:48;-5.90;99.90
11446;DHT22;5779;64.178;15.432;2023-02-22T03:10:47;-5.90;99.90
11446;DHT22;5779;64.178;15.432;2023-02-22T03:13:44;-5.70;99.90
11446;DHT22;5779;64.178;15.432;2023-02-22T03:16:38;-5.60;99.90
11446;DHT22;5779;64.178;15.432;2023-02-22T03:19:34;-5.50;99.90
11446;DHT22;5779;64.178;15.432;2023-02-22T03:22:25;-5.40;99.90
11446;DHT22;5779;64.178;15.432;2023-02-22T03:25:23;-5.20;99.90
11446;DHT22;5779;64.178;15.432;2023-02-22T03:28:12;-5.20;99.90
11446;DHT22;5779;64.178;15.432;2023-02-22T03:31:05;-5.20;99.90
11446;DHT22;5779;64.178;15.432;2023-02-22T03:33:56;-5.30;99.90
11446;DHT22;5779;64.178;15.432;2023-02-22T03:36:49;-5.30;99.90
11446;DHT22;5779;64.178;15.432;2023-02-22T03:39:41;-5.20;99.90
11446;DHT22;5779;64.178;15.432;2023-02-22T03:42:32;-5.10;99.90
11446;DHT22;5779;64.178;15.432;2023-02-22T03:45:24;-5.10;99.90
11446;DHT22;5779;64.178;15.432;2023-02-22T03:48:19;-5.10;99.90
11446;DHT22;5779;64.178;15.432;2023-02-22T03:51:07;-5.10;99.90
11446;DHT22;5779;64.178;15.432;2023-02-22T03:53:54;-5.10;99.90
11446;DHT22;5779;64.178;15.432;2023-02-22T03:56:44;-5.00;99.90
11446;DHT22;5779;64.178;15.432;2023-02-22T03:59:36;-4.90;99.90
11446;DHT22;5779;64.178;15.432;2023-02-22T04:02:23;-4.90;99.90
11446;DHT22;5779;64.178;15.432;2023-02-22T04:05:10;-5.00;99.90
11446;DHT22;5779;64.178;15.432;2023-02-22T04:07:58;-5.00;99.90
11446;DHT22;5779;64.178;15.432;2023-02-22T04:10:45;-5.00;99.90
11446;DHT22;5779;64.178;15.432;2023-02-22T04:13:32;-5.00;99.90
11446;DHT22;5779;64.178;15.432;2023-02-22T04:16:20;-5.40;99.90
11446;DHT22;5779;64.178;15.432;2023-02-22T04:19:07;-5.50;99.90
11446;DHT22;5779;64.178;15.432;2023-02-22T04:21:54;-5.40;99.90
11446;DHT22;5779;64.178;15.432;2023-02-22T04:24:41;-5.30;99.90
11446;DHT22;5779;64.178;15.432;2023-02-22T04:27:29;-5.30;99.90
11446;DHT22;5779;64.178;15.432;2023-02-22T04:30:16;-5.10;99.90
11446;DHT22;5779;64.178;15.432;2023-02-22T04:33:05;-5.20;99.90
11446;DHT22;5779;64.178;15.432;2023-02-22T04:35:52;-5.40;99.90
11446;DHT22;5779;64.178;15.432;2023-02-22T04:38:38;-5.70;99.90
11446;DHT22;5779;64.178;15.432;2023-02-22T04:41:25;-6.00;99.90
11446;DHT22;5779;64.178;15.432;2023-02-22T04:44:12;-6.10;99.90
11446;DHT22;5779;64.178;15.432;2023-02-22T04:46:59;-6.20;99.90
11446;DHT22;5779;64.178;15.432;2023-02-22T04:49:47;-6.10;99.90
11446;DHT22;5779;64.178;15.432;2023-02-22T04:52:34;-6.00;99.90
11446;DHT22;5779;64.178;15.432;2023-02-22T04:55:21;-5.80;99.90
11446;DHT22;5779;64.178;15.432;2023-02-22T04:58:07;-5.70;99.90
11446;DHT22;5779;64.178;15.432;2023-02-22T05:00:54;-5.70;99.90
11446;DHT22;5779;64.178;15.432;2023-02-22T05:03:41;-5.70;99.90
11446;DHT22;5779;64.178;15.432;2023-02-22T05:06:30;-5.50;99.90
11446;DHT22;5779;64.178;15.432;2023-02-22T05:09:16;-5.50;99.90
11446;DHT22;5779;64.178;15.432;2023-02-22T05:12:03;-5.50;99.90
11446;DHT22;5779;64.178;15.432;2023-02-22T05:14:50;-5.60;99.90
11446;DHT22;5779;64.178;15.432;2023-02-22T05:17:37;-5.80;99.90
11446;DHT22;5779;64.178;15.432;2023-02-22T05:20:25;-5.70;99.90
11446;DHT22;5779;64.178;15.432;2023-02-22T05:23:14;-5.90;99.90
11446;DHT22;5779;64.178;15.432;2023-02-22T05:26:01;-6.20;99.90
11446;DHT22;5779;64.178;15.432;2023-02-22T05:28:50;-6.50;99.90
11446;DHT22;5779;64.178;15.432;2023-02-22T05:31:37;-6.50;99.90
11446;DHT22;5779;64.178;15.432;2023-02-22T05:34:25;-6.50;99.90
11446;DHT22;5779;64.178;15.432;2023-02-22T05:37:12;-6.50;99.90
11446;DHT22;5779;64.178;15.432;2023-02-22T05:40:01;-6.50;99.90
11446;DHT22;5779;64.178;15.432;2023-02-22T05:42:49;-6.40;99.90
11446;DHT22;5779;64.178;15.432;2023-02-22T05:45:36;-6.20;99.90
11446;DHT22;5779;64.178;15.432;2023-02-22T05:48:23;-6.20;99.90
11446;DHT22;5779;64.178;15.432;2023-02-22T05:51:10;-6.30;99.90
11446;DHT22;5779;64.178;15.432;2023-02-22T05:53:56;-6.30;99.90
11446;DHT22;5779;64.178;15.432;2023-02-22T05:56:45;-6.40;99.90
11446;DHT22;5779;64.178;15.432;2023-02-22T05:59:32;-6.60;99.90
11446;DHT22;5779;64.178;15.432;2023-02-22T06:02:18;-6.70;99.90
11446;DHT22;5779;64.178;15.432;2023-02-22T06:05:06;-6.70;99.90
11446;DHT22;5779;64.178;15.432;2023-02-22T06:07:54;-6.70;99.90
11446;DHT22;5779;64.178;15.432;2023-02-22T06:10:41;-6.80;99.90
11446;DHT22;5779;64.178;15.432;2023-02-22T06:13:29;-6.80;99.90
11446;DHT22;5779;64.178;15.432;2023-02-22T06:16:16;-6.90;99.90
11446;DHT22;5779;64.178;15.432;2023-02-22T06:19:03;-6.90;99.90
11446;DHT22;5779;64.178;15.432;2023-02-22T06:21:51;-6.90;99.90
11446;DHT22;5779;64.178;15.432;2023-02-22T06:24:38;-7.00;99.90
11446;DHT22;5779;64.178;15.432;2023-02-22T06:27:25;-6.90;99.90
11446;DHT22;5779;64.178;15.432;2023-02-22T06:30:14;-7.00;99.90
11446;DHT22;5779;64.178;15.432;2023-02-22T06:33:01;-7.00;99.90
11446;DHT22;5779;64.178;15.432;2023-02-22T06:35:48;-7.00;99.90
11446;DHT22;5779;64.178;15.432;2023-02-22T06:38:35;-7.10;99.90
11446;DHT22;5779;64.178;15.432;2023-02-22T06:41:21;-7.10;99.90
11446;DHT22;5779;64.178;15.432;2023-02-22T06:44:09;-7.10;99.90
11446;DHT22;5779;64.178;15.432;2023-02-22T06:46:58;-7.00;99.90
11446;DHT22;5779;64.178;15.432;2023-02-22T06:49:45;-6.90;99.90
11446;DHT22;5779;64.178;15.432;2023-02-22T06:52:41;-6.80;99.90
11446;DHT22;5779;64.178;15.432;2023-02-22T06:55:30;-6.90;99.90
11446;DHT22;5779;64.178;15.432;2023-02-22T06:58:17;-6.90;99.90
11446;DHT22;5779;64.178;15.432;2023-02-22T07:01:04;-6.80;99.90
11446;DHT22;5779;64.178;15.432;2023-02-22T07:03:54;-6.70;99.90
11446;DHT22;5779;64.178;15.432;2023-02-22T07:06:44;-6.70;99.90
11446;DHT22;5779;64.178;15.432;2023-02-22T07:09:32;-6.70;99.90
11446;DHT22;5779;64.178;15.432;2023-02-22T07:12:19;-6.70;99.90
11446;DHT22;5779;64.178;15.432;2023-02-22T07:15:06;-6.80;99.90
11446;DHT22;5779;64.178;15.432;2023-02-22T07:17:53;-6.80;99.90
11446;DHT22;5779;64.178;15.432;2023-02-22T07:20:41;-6.90;99.90
11446;DHT22;5779;64.178;15.432;2023-02-22T07:23:28;-6.90;99.90
11446;DHT22;5779;64.178;15.432;2023-02-22T07:26:15;-6.80;99.90
11446;DHT22;5779;64.178;15.432;2023-02-22T07:29:02;-6.70;99.90
11446;DHT22;5779;64.178;15.432;2023-02-22T07:31:49;-6.80;99.90
11446;DHT22;5779;64.178;15.432;2023-02-22T07:34:36;-6.70;99.90
11446;DHT22;5779;64.178;15.432;2023-02-22T07:37:24;-6.60;99.90
11446;DHT22;5779;64.178;15.432;2023-02-22T07:40:12;-6.70;99.90
11446;DHT22;5779;64.178;15.432;2023-02-22T07:43:00;-6.80;99.90
11446;DHT22;5779;64.178;15.432;2023-02-22T07:45:50;-6.70;99.90
11446;DHT22;5779;64.178;15.432;2023-02-22T07:48:37;-6.80;99.90
11446;DHT22;5779;64.178;15.432;2023-02-22T07:51:24;-6.90;99.90
11446;DHT22;5779;64.178;15.432;2023-02-22T07:54:12;-7.00;99.90
11446;DHT22;5779;64.178;15.432;2023-02-22T07:56:59;-7.00;99.90
11446;DHT22;5779;64.178;15.432;2023-02-22T07:59:47;-6.80;99.90
11446;DHT22;5779;64.178;15.432;2023-02-22T08:02:34;-6.90;99.90
11446;DHT22;5779;64.178;15.432;2023-02-22T08:05:23;-7.00;99.90
11446;DHT22;5779;64.178;15.432;2023-02-22T08:08:11;-7.00;99.90
11446;DHT22;5779;64.178;15.432;2023-02-22T08:11:01;-7.20;99.90
11446;DHT22;5779;64.178;15.432;2023-02-22T08:13:48;-7.00;99.90
11446;DHT22;5779;64.178;15.432;2023-02-22T08:16:35;-6.90;99.90
11446;DHT22;5779;64.178;15.432;2023-02-22T08:19:21;-6.90;99.90
11446;DHT22;5779;64.178;15.432;2023-02-22T08:22:08;-6.80;99.90
11446;DHT22;5779;64.178;15.432;2023-02-22T08:24:55;-6.60;99.90
11446;DHT22;5779;64.178;15.432;2023-02-22T08:27:43;-6.60;99.90
11446;DHT22;5779;64.178;15.432;2023-02-22T08:30:31;-6.50;99.90
11446;DHT22;5779;64.178;15.432;2023-02-22T08:33:19;-6.40;99.90
11446;DHT22;5779;64.178;15.432;2023-02-22T08:36:07;-6.30;99.90
11446;DHT22;5779;64.178;15.432;2023-02-22T08:38:54;-6.20;99.90
11446;DHT22;5779;64.178;15.432;2023-02-22T08:41:40;-6.40;99.90
11446;DHT22;5779;64.178;15.432;2023-02-22T08:44:29;-6.50;99.90
11446;DHT22;5779;64.178;15.432;2023-02-22T08:47:16;-6.50;99.90
11446;DHT22;5779;64.178;15.432;2023-02-22T08:50:03;-6.50;99.90
11446;DHT22;5779;64.178;15.432;2023-02-22T08:52:51;-6.40;99.90
11446;DHT22;5779;64.178;15.432;2023-02-22T08:55:39;-6.50;99.90
11446;DHT22;5779;64.178;15.432;2023-02-22T08:58:27;-6.40;99.90
11446;DHT22;5779;64.178;15.432;2023-02-22T09:01:15;-6.40;99.90
11446;DHT22;5779;64.178;15.432;2023-02-22T09:04:02;-6.60;99.90
11446;DHT22;5779;64.178;15.432;2023-02-22T09:06:49;-6.50;99.90
11446;DHT22;5779;64.178;15.432;2023-02-22T09:09:37;-6.60;99.90
11446;DHT22;5779;64.178;15.432;2023-02-22T09:12:24;-6.50;99.90
11446;DHT22;5779;64.178;15.432;2023-02-22T09:15:12;-6.60;99.90
11446;DHT22;5779;64.178;15.432;2023-02-22T09:18:00;-6.60;99.90
11446;DHT22;5779;64.178;15.432;2023-02-22T09:20:47;-6.80;99.90
11446;DHT22;5779;64.178;15.432;2023-02-22T09:23:34;-6.80;99.90
11446;DHT22;5779;64.178;15.432;2023-02-22T09:26:21;-6.90;99.90
11446;DHT22;5779;64.178;15.432;2023-02-22T09:29:09;-6.90;99.90
11446;DHT22;5779;64.178;15.432;2023-02-22T09:31:56;-6.80;99.90
11446;DHT22;5779;64.178;15.432;2023-02-22T09:34:45;-6.80;99.90
11446;DHT22;5779;64.178;15.432;2023-02-22T09:37:32;-6.80;99.90
11446;DHT22;5779;64.178;15.432;2023-02-22T09:40:19;-6.80;99.90
11446;DHT22;5779;64.178;15.432;2023-02-22T09:43:33;-6.80;99.90
11446;DHT22;5779;64.178;15.432;2023-02-22T09:46:28;-6.80;99.90
11446;DHT22;5779;64.178;15.432;2023-02-22T09:49:22;-6.80;99.90
11446;DHT22;5779;64.178;15.432;2023-02-22T09:52:17;-6.80;99.90
11446;DHT22;5779;64.178;15.432;2023-02-22T09:55:09;-6.70;99.90
11446;DHT22;5779;64.178;15.432;2023-02-22T09:58:05;-6.60;99.90
11446;DHT22;5779;64.178;15.432;2023-02-22T10:00:57;-6.60;99.90
11446;DHT22;5779;64.178;15.432;2023-02-22T10:03:50;-6.30;99.90
11446;DHT22;5779;64.178;15.432;2023-02-22T10:06:41;-6.20;99.90
11446;DHT22;5779;64.178;15.432;2023-02-22T10:09:34;-6.30;99.90
11446;DHT22;5779;64.178;15.432;2023-02-22T10:12:29;-6.30;99.90
11446;DHT22;5779;64.178;15.432;2023-02-22T10:15:45;-6.30;99.90
11446;DHT22;5779;64.178;15.432;2023-02-22T10:22:20;-6.30;99.90
11446;DHT22;5779;64.178;15.432;2023-02-22T10:25:16;-6.10;99.90
11446;DHT22;5779;64.178;15.432;2023-02-22T10:28:10;-6.00;99.90
11446;DHT22;5779;64.178;15.432;2023-02-22T10:31:02;-5.80;99.90
11446;DHT22;5779;64.178;15.432;2023-02-22T10:33:55;-5.50;99.90
11446;DHT22;5779;64.178;15.432;2023-02-22T10:36:47;-5.30;99.90
11446;DHT22;5779;64.178;15.432;2023-02-22T10:39:36;-5.40;99.90
11446;DHT22;5779;64.178;15.432;2023-02-22T10:42:26;-5.40;99.90
11446;DHT22;5779;64.178;15.432;2023-02-22T10:45:21;-5.50;99.90
11446;DHT22;5779;64.178;15.432;2023-02-22T10:48:12;-5.50;99.90
11446;DHT22;5779;64.178;15.432;2023-02-22T10:51:01;-5.40;99.90
11446;DHT22;5779;64.178;15.432;2023-02-22T10:53:58;-5.40;99.90
11446;DHT22;5779;64.178;15.432;2023-02-22T10:56:47;-5.50;99.90
11446;DHT22;5779;64.178;15.432;2023-02-22T10:59:37;-5.50;99.90
11446;DHT22;5779;64.178;15.432;2023-02-22T11:02:29;-5.80;99.90
11446;DHT22;5779;64.178;15.432;2023-02-22T11:05:27;-5.70;99.90
11446;DHT22;5779;64.178;15.432;2023-02-22T11:08:27;-5.60;99.90
11446;DHT22;5779;64.178;15.432;2023-02-22T11:11:22;-5.50;99.90
11446;DHT22;5779;64.178;15.432;2023-02-22T11:14:10;-5.50;99.90
11446;DHT22;5779;64.178;15.432;2023-02-22T11:17:00;-5.50;99.90
11446;DHT22;5779;64.178;15.432;2023-02-22T11:19:48;-5.60;99.90
11446;DHT22;5779;64.178;15.432;2023-02-22T11:22:39;-5.60;99.90
11446;DHT22;5779;64.178;15.432;2023-02-22T11:25:30;-5.60;99.90
11446;DHT22;5779;64.178;15.432;2023-02-22T11:28:20;-5.50;99.90
11446;DHT22;5779;64.178;15.432;2023-02-22T11:31:16;-5.60;99.90
11446;DHT22;5779;64.178;15.432;2023-02-22T11:34:05;-5.60;99.90
11446;DHT22;5779;64.178;15.432;2023-02-22T11:36:52;-5.60;99.90
11446;DHT22;5779;64.178;15.432;2023-02-22T11:39:39;-5.60;99.90
11446;DHT22;5779;64.178;15.432;2023-02-22T11:42:27;-5.40;99.90
11446;DHT22;5779;64.178;15.432;2023-02-22T11:45:16;-5.40;99.90
11446;DHT22;5779;64.178;15.432;2023-02-22T11:48:06;-5.30;99.90
11446;DHT22;5779;64.178;15.432;2023-02-22T11:51:08;-5.40;99.90
11446;DHT22;5779;64.178;15.432;2023-02-22T11:54:28;-5.40;99.90
11446;DHT22;5779;64.178;15.432;2023-02-22T12:00:44;-5.30;99.90
11446;DHT22;5779;64.178;15.432;2023-02-22T12:03:48;-5.30;99.90
11446;DHT22;5779;64.178;15.432;2023-02-22T12:06:48;-5.20;99.90
11446;DHT22;5779;64.178;15.432;2023-02-22T12:09:40;-5.00;99.90
11446;DHT22;5779;64.178;15.432;2023-02-22T12:12:36;-4.70;99.90
11446;DHT22;5779;64.178;15.432;2023-02-22T12:15:28;-4.60;99.90
11446;DHT22;5779;64.178;15.432;2023-02-22T12:18:23;-4.80;99.90
11446;DHT22;5779;64.178;15.432;2023-02-22T12:21:15;-4.60;99.90
11446;DHT22;5779;64.178;15.432;2023-02-22T12:24:06;-4.70;99.90
11446;DHT22;5779;64.178;15.432;2023-02-22T12:27:02;-4.50;99.90
11446;DHT22;5779;64.178;15.432;2023-02-22T12:29:53;-4.70;99.90
11446;DHT22;5779;64.178;15.432;2023-02-22T12:32:44;-4.80;99.90
11446;DHT22;5779;64.178;15.432;2023-02-22T12:35:34;-4.80;99.90
11446;DHT22;5779;64.178;15.432;2023-02-22T12:38:29;-4.60;99.90
11446;DHT22;5779;64.178;15.432;2023-02-22T12:41:27;-4.60;99.90
11446;DHT22;5779;64.178;15.432;2023-02-22T12:44:19;-4.60;99.90
11446;DHT22;5779;64.178;15.432;2023-02-22T12:47:15;-4.40;99.90
11446;DHT22;5779;64.178;15.432;2023-02-22T12:50:09;-4.50;99.90
11446;DHT22;5779;64.178;15.432;2023-02-22T12:53:03;-4.70;99.90
11446;DHT22;5779;64.178;15.432;2023-02-22T12:55:57;-4.60;99.90
11446;DHT22;5779;64.178;15.432;2023-02-22T12:58:52;-4.70;99.90
11446;DHT22;5779;64.178;15.432;2023-02-22T13:01:44;-4.60;99.90
11446;DHT22;5779;64.178;15.432;2023-02-22T13:04:35;-4.60;99.90
11446;DHT22;5779;64.178;15.432;2023-02-22T13:07:33;-4.50;99.90
11446;DHT22;5779;64.178;15.432;2023-02-22T13:10:39;-4.40;99.90
11446;DHT22;5779;64.178;15.432;2023-02-22T13:13:38;-4.20;99.90
11446;DHT22;5779;64.178;15.432;2023-02-22T13:16:36;-3.90;99.90
11446;DHT22;5779;64.178;15.432;2023-02-22T13:19:33;-3.70;99.90
11446;DHT22;5779;64.178;15.432;2023-02-22T13:22:28;-3.70;99.90
11446;DHT22;5779;64.178;15.432;2023-02-22T13:25:19;-3.50;99.90
11446;DHT22;5779;64.178;15.432;2023-02-22T13:28:19;-3.50;99.90
11446;DHT22;5779;64.178;15.432;2023-02-22T13:31:33;-3.50;99.90
11446;DHT22;5779;64.178;15.432;2023-02-22T13:34:37;-3.40;99.90
11446;DHT22;5779;64.178;15.432;2023-02-22T13:37:42;-3.40;99.90
11446;DHT22;5779;64.178;15.432;2023-02-22T13:47:42;-3.50;99.90
11446;DHT22;5779;64.178;15.432;2023-02-22T13:51:04;-3.50;99.90
11446;DHT22;5779;64.178;15.432;2023-02-22T13:53:54;-3.50;99.90
11446;DHT22;5779;64.178;15.432;2023-02-22T13:56:42;-3.50;99.90
11446;DHT22;5779;64.178;15.432;2023-02-22T13:59:31;-3.30;99.90
11446;DHT22;5779;64.178;15.432;2023-02-22T14:02:33;-3.40;99.90
11446;DHT22;5779;64.178;15.432;2023-02-22T14:05:52;-3.30;99.90
11446;DHT22;5779;64.178;15.432;2023-02-22T14:08:45;-3.50;99.90
11446;DHT22;5779;64.178;15.432;2023-02-22T14:11:41;-3.50;99.90
11446;DHT22;5779;64.178;15.432;2023-02-22T14:14:30;-3.50;99.90
11446;DHT22;5779;64.178;15.432;2023-02-22T14:17:26;-3.40;99.90
11446;DHT22;5779;64.178;15.432;2023-02-22T14:20:25;-3.50;99.90
11446;DHT22;5779;64.178;15.432;2023-02-22T14:23:34;-3.50;99.90
11446;DHT22;5779;64.178;15.432;2023-02-22T14:26:25;-3.40;99.90
11446;DHT22;5779;64.178;15.432;2023-02-22T14:29:17;-3.30;99.90
11446;DHT22;5779;64.178;15.432;2023-02-22T14:32:06;-3.30;99.90
11446;DHT22;5779;64.178;15.432;2023-02-22T14:34:56;-3.50;99.90
11446;DHT22;5779;64.178;15.432;2023-02-22T14:37:47;-3.40;99.90
11446;DHT22;5779;64.178;15.432;2023-02-22T14:40:42;-3.60;99.90
11446;DHT22;5779;64.178;15.432;2023-02-22T14:43:35;-3.50;99.90
11446;DHT22;5779;64.178;15.432;2023-02-22T14:46:26;-3.50;99.90
11446;DHT22;5779;64.178;15.432;2023-02-22T14:49:17;-3.40;99.90
11446;DHT22;5779;64.178;15.432;2023-02-22T14:52:16;-3.40;99.90
11446;DHT22;5779;64.178;15.432;2023-02-22T14:55:17;-3.50;99.90
11446;DHT22;5779;64.178;15.432;2023-02-22T14:58:11;-3.50;99.90
11446;DHT22;5779;64.178;15.432;2023-02-22T15:01:20;-3.50;99.90
11446;DHT22;5779;64.178;15.432;2023-02-22T15:04:19;-3.50;99.90
11446;DHT22;5779;64.178;15.432;2023-02-22T15:07:19;-3.40;99.90
11446;DHT22;5779;64.178;15.432;2023-02-22T15:10:17;-3.30;99.90
11446;DHT22;5779;64.178;15.432;2023-02-22T15:13:14;-3.30;99.90
11446;DHT22;5779;64.178;15.432;2023-02-22T15:16:02;-3.40;99.90
11446;DHT22;5779;64.178;15.432;2023-02-22T15:18:53;-3.40;99.90
11446;DHT22;5779;64.178;15.432;2023-02-22T15:21:45;-3.30;99.90
11446;DHT22;5779;64.178;15.432;2023-02-22T15:24:36;-3.50;99.90
11446;DHT22;5779;64.178;15.432;2023-02-22T15:27:23;-3.40;99.90
11446;DHT22;5779;64.178;15.432;2023-02-22T15:30:18;-3.40;99.90
11446;DHT22;5779;64.178;15.432;2023-02-22T15:33:12;-3.40;99.90
11446;DHT22;5779;64.178;15.432;2023-02-22T15:35:58;-3.30;99.90
11446;DHT22;5779;64.178;15.432;2023-02-22T15:38:49;-3.20;99.90
11446;DHT22;5779;64.178;15.432;2023-02-22T15:41:37;-3.30;99.90
11446;DHT22;5779;64.178;15.432;2023-02-22T15:44:24;-3.30;99.90
11446;DHT22;5779;64.178;15.432;2023-02-22T15:47:17;-3.40;99.90
11446;DHT22;5779;64.178;15.432;2023-02-22T15:50:17;-3.30;99.90
11446;DHT22;5779;64.178;15.432;2023-02-22T15:53:07;-3.40;99.90
11446;DHT22;5779;64.178;15.432;2023-02-22T15:55:56;-3.40;99.90
11446;DHT22;5779;64.178;15.432;2023-02-22T15:58:45;-3.40;99.90
11446;DHT22;5779;64.178;15.432;2023-02-22T16:01:36;-3.30;99.90
11446;DHT22;5779;64.178;15.432;2023-02-22T16:04:26;-3.20;99.90
11446;DHT22;5779;64.178;15.432;2023-02-22T16:07:15;-3.20;99.90
11446;DHT22;5779;64.178;15.432;2023-02-22T16:10:05;-3.20;99.90
11446;DHT22;5779;64.178;15.432;2023-02-22T16:13:08;-3.20;99.90
11446;DHT22;5779;64.178;15.432;2023-02-22T16:15:57;-3.20;99.90
11446;DHT22;5779;64.178;15.432;2023-02-22T16:18:46;-3.30;99.90
11446;DHT22;5779;64.178;15.432;2023-02-22T16:21:50;-3.30;99.90
11446;DHT22;5779;64.178;15.432;2023-02-22T16:24:39;-3.50;99.90
11446;DHT22;5779;64.178;15.432;2023-02-22T16:27:26;-3.40;99.90
11446;DHT22;5779;64.178;15.432;2023-02-22T16:30:28;-3.40;99.90
11446;DHT22;5779;64.178;15.432;2023-02-22T16:33:16;-3.60;99.90
11446;DHT22;5779;64.178;15.432;2023-02-22T16:36:05;-3.60;99.90
11446;DHT22;5779;64.178;15.432;2023-02-22T16:38:53;-3.50;99.90
11446;DHT22;5779;64.178;15.432;2023-02-22T16:41:40;-3.50;99.90
11446;DHT22;5779;64.178;15.432;2023-02-22T16:44:27;-3.50;99.90
11446;DHT22;5779;64.178;15.432;2023-02-22T16:47:14;-3.50;99.90
11446;DHT22;5779;64.178;15.432;2023-02-22T16:50:01;-3.50;99.90
11446;DHT22;5779;64.178;15.432;2023-02-22T16:52:49;-3.50;99.90
11446;DHT22;5779;64.178;15.432;2023-02-22T16:55:42;-3.50;99.90
11446;DHT22;5779;64.178;15.432;2023-02-22T16:58:33;-3.50;99.90
11446;DHT22;5779;64.178;15.432;2023-02-22T17:01:20;-3.50;99.90
11446;DHT22;5779;64.178;15.432;2023-02-22T17:04:13;-3.60;99.90
11446;DHT22;5779;64.178;15.432;2023-02-22T17:07:00;-3.60;99.90
11446;DHT22;5779;64.178;15.432;2023-02-22T17:09:47;-3.70;99.90
11446;DHT22;5779;64.178;15.432;2023-02-22T17:12:36;-3.70;99.90
11446;DHT22;5779;64.178;15.432;2023-02-22T17:15:30;-3.60;99.90
11446;DHT22;5779;64.178;15.432;2023-02-22T17:18:19;-3.50;99.90
11446;DHT22;5779;64.178;15.432;2023-02-22T17:21:08;-3.40;99.90
11446;DHT22;5779;64.178;15.432;2023-02-22T17:23:56;-3.50;99.90
11446;DHT22;5779;64.178;15.432;2023-02-22T17:26:42;-3.40;99.90
11446;DHT22;5779;64.178;15.432;2023-02-22T17:29:31;-3.40;99.90
11446;DHT22;5779;64.178;15.432;2023-02-22T17:32:18;-3.30;99.90
11446;DHT22;5779;64.178;15.432;2023-02-22T17:35:05;-3.20;99.90
11446;DHT22;5779;64.178;15.432;2023-02-22T17:37:52;-3.20;99.90
11446;DHT22;5779;64.178;15.432;2023-02-22T17:40:39;-3.30;99.90
11446;DHT22;5779;64.178;15.432;2023-02-22T17:43:27;-3.30;99.90
11446;DHT22;5779;64.178;15.432;2023-02-22T17:46:15;-3.30;99.90
11446;DHT22;5779;64.178;15.432;2023-02-22T17:49:03;-3.30;99.90
11446;DHT22;5779;64.178;15.432;2023-02-22T17:51:50;-3.40;99.90
11446;DHT22;5779;64.178;15.432;2023-02-22T17:54:37;-3.40;99.90
11446;DHT22;5779;64.178;15.432;2023-02-22T17:57:24;-3.30;99.90
11446;DHT22;5779;64.178;15.432;2023-02-22T18:00:13;-3.50;99.90
11446;DHT22;5779;64.178;15.432;2023-02-22T18:03:10;-3.50;99.90
11446;DHT22;5779;64.178;15.432;2023-02-22T18:05:59;-3.30;99.90
11446;DHT22;5779;64.178;15.432;2023-02-22T18:08:46;-3.30;99.90
11446;DHT22;5779;64.178;15.432;2023-02-22T18:11:33;-3.50;99.90
11446;DHT22;5779;64.178;15.432;2023-02-22T18:14:20;-3.40;99.90
11446;DHT22;5779;64.178;15.432;2023-02-22T18:17:08;-3.40;99.90